sensor_id;sensor_type;location;lat;lon;timestamp;P1;durP1;ratioP1;P2;durP2;ratioP2
58647;SDS011;45992;45.920;20.074;2022-10-16T00:00:39;11.30;;;6.82;;
58647;SDS011;45992;45.920;20.074;2022-10-16T00:03:06;10.70;;;6.45;;
58647;SDS011;45992;45.920;20.074;2022-10-16T00:05:32;11.30;;;6.78;;
58647;SDS011;45992;45.920;20.074;2022-10-16T00:07:58;10.20;;;6.13;;
58647;SDS011;45992;45.920;20.074;2022-10-16T00:10:24;11.07;;;7.23;;
58647;SDS011;45992;45.920;20.074;2022-10-16T00:12:50;9.87;;;7.13;;
58647;SDS011;45992;45.920;20.074;2022-10-16T00:15:16;9.27;;;6.57;;
58647;SDS011;45992;45.920;20.074;2022-10-16T00:17:42;13.13;;;6.55;;
58647;SDS011;45992;45.920;20.074;2022-10-16T00:20:08;11.90;;;6.75;;
58647;SDS011;45992;45.920;20.074;2022-10-16T00:22:34;12.88;;;7.30;;
58647;SDS011;45992;45.920;20.074;2022-10-16T00:25:00;14.53;;;7.53;;
58647;SDS011;45992;45.920;20.074;2022-10-16T00:27:26;11.00;;;7.33;;
58647;SDS011;45992;45.920;20.074;2022-10-16T00:29:52;11.47;;;7.83;;
58647;SDS011;45992;45.920;20.074;2022-10-16T00:32:19;10.25;;;7.65;;
58647;SDS011;45992;45.920;20.074;2022-10-16T00:34:45;10.27;;;6.88;;
58647;SDS011;45992;45.920;20.074;2022-10-16T00:37:12;13.60;;;7.40;;
58647;SDS011;45992;45.920;20.074;2022-10-16T00:39:38;13.77;;;7.38;;
58647;SDS011;45992;45.920;20.074;2022-10-16T00:42:04;9.77;;;6.57;;
58647;SDS011;45992;45.920;20.074;2022-10-16T00:49:50;10.10;;;6.85;;
58647;SDS011;45992;45.920;20.074;2022-10-16T00:52:17;12.68;;;7.50;;
58647;SDS011;45992;45.920;20.074;2022-10-16T00:54:43;12.43;;;7.35;;
58647;SDS011;45992;45.920;20.074;2022-10-16T00:57:11;10.15;;;7.30;;
58647;SDS011;45992;45.920;20.074;2022-10-16T00:59:38;10.93;;;8.02;;
58647;SDS011;45992;45.920;20.074;2022-10-16T01:02:06;10.48;;;7.35;;
58647;SDS011;45992;45.920;20.074;2022-10-16T01:04:34;11.00;;;7.63;;
58647;SDS011;45992;45.920;20.074;2022-10-16T01:14:53;12.05;;;7.97;;
58647;SDS011;45992;45.920;20.074;2022-10-16T01:17:38;12.25;;;7.60;;
58647;SDS011;45992;45.920;20.074;2022-10-16T01:22:48;13.85;;;8.15;;
58647;SDS011;45992;45.920;20.074;2022-10-16T01:25:18;11.80;;;8.02;;
58647;SDS011;45992;45.920;20.074;2022-10-16T01:27:48;12.02;;;8.35;;
58647;SDS011;45992;45.920;20.074;2022-10-16T01:32:58;11.82;;;8.10;;
58647;SDS011;45992;45.920;20.074;2022-10-16T01:35:26;13.52;;;9.18;;
58647;SDS011;45992;45.920;20.074;2022-10-16T01:37:58;12.55;;;8.35;;
58647;SDS011;45992;45.920;20.074;2022-10-16T01:40:26;11.98;;;8.45;;
58647;SDS011;45992;45.920;20.074;2022-10-16T01:45:18;13.20;;;9.15;;
58647;SDS011;45992;45.920;20.074;2022-10-16T01:50:11;12.60;;;8.00;;
58647;SDS011;45992;45.920;20.074;2022-10-16T01:52:39;14.15;;;9.25;;
58647;SDS011;45992;45.920;20.074;2022-10-16T01:55:06;10.88;;;7.38;;
58647;SDS011;45992;45.920;20.074;2022-10-16T01:57:33;13.00;;;8.23;;
58647;SDS011;45992;45.920;20.074;2022-10-16T02:00:05;11.95;;;8.55;;
58647;SDS011;45992;45.920;20.074;2022-10-16T02:02:32;10.13;;;7.68;;
58647;SDS011;45992;45.920;20.074;2022-10-16T02:05:08;13.38;;;8.30;;
58647;SDS011;45992;45.920;20.074;2022-10-16T02:07:36;12.32;;;8.23;;
58647;SDS011;45992;45.920;20.074;2022-10-16T02:10:02;12.50;;;8.00;;
58647;SDS011;45992;45.920;20.074;2022-10-16T02:12:30;11.60;;;7.68;;
58647;SDS011;45992;45.920;20.074;2022-10-16T02:14:57;11.30;;;8.38;;
58647;SDS011;45992;45.920;20.074;2022-10-16T02:17:23;16.10;;;8.40;;
58647;SDS011;45992;45.920;20.074;2022-10-16T02:19:50;13.93;;;8.80;;
58647;SDS011;45992;45.920;20.074;2022-10-16T02:24:59;13.55;;;8.48;;
58647;SDS011;45992;45.920;20.074;2022-10-16T02:30:02;12.73;;;8.73;;
58647;SDS011;45992;45.920;20.074;2022-10-16T02:32:32;13.55;;;8.60;;
58647;SDS011;45992;45.920;20.074;2022-10-16T02:34:59;11.63;;;7.88;;
58647;SDS011;45992;45.920;20.074;2022-10-16T02:37:26;13.48;;;8.38;;
58647;SDS011;45992;45.920;20.074;2022-10-16T02:39:52;13.27;;;8.52;;
58647;SDS011;45992;45.920;20.074;2022-10-16T02:44:45;13.25;;;9.45;;
58647;SDS011;45992;45.920;20.074;2022-10-16T02:47:11;15.00;;;8.70;;
58647;SDS011;45992;45.920;20.074;2022-10-16T02:49:37;14.38;;;10.00;;
58647;SDS011;45992;45.920;20.074;2022-10-16T02:52:03;16.13;;;9.63;;
58647;SDS011;45992;45.920;20.074;2022-10-16T02:54:29;11.87;;;8.70;;
58647;SDS011;45992;45.920;20.074;2022-10-16T02:56:55;14.03;;;9.10;;
58647;SDS011;45992;45.920;20.074;2022-10-16T02:59:21;13.88;;;9.23;;
58647;SDS011;45992;45.920;20.074;2022-10-16T03:01:47;13.43;;;9.40;;
58647;SDS011;45992;45.920;20.074;2022-10-16T03:04:14;12.65;;;8.55;;
58647;SDS011;45992;45.920;20.074;2022-10-16T03:06:40;13.17;;;8.83;;
58647;SDS011;45992;45.920;20.074;2022-10-16T03:09:06;16.65;;;9.30;;
58647;SDS011;45992;45.920;20.074;2022-10-16T03:13:58;14.05;;;9.40;;
58647;SDS011;45992;45.920;20.074;2022-10-16T03:16:25;14.02;;;8.95;;
58647;SDS011;45992;45.920;20.074;2022-10-16T03:18:51;13.90;;;9.40;;
58647;SDS011;45992;45.920;20.074;2022-10-16T03:21:17;14.47;;;9.70;;
58647;SDS011;45992;45.920;20.074;2022-10-16T03:23:43;16.60;;;9.43;;
58647;SDS011;45992;45.920;20.074;2022-10-16T03:26:09;17.60;;;9.17;;
58647;SDS011;45992;45.920;20.074;2022-10-16T03:28:35;14.90;;;8.97;;
58647;SDS011;45992;45.920;20.074;2022-10-16T03:31:01;13.00;;;9.43;;
58647;SDS011;45992;45.920;20.074;2022-10-16T03:33:27;13.57;;;9.20;;
58647;SDS011;45992;45.920;20.074;2022-10-16T03:35:53;16.27;;;9.80;;
58647;SDS011;45992;45.920;20.074;2022-10-16T03:38:20;13.95;;;10.43;;
58647;SDS011;45992;45.920;20.074;2022-10-16T03:40:46;13.60;;;9.23;;
58647;SDS011;45992;45.920;20.074;2022-10-16T03:43:12;19.95;;;11.48;;
58647;SDS011;45992;45.920;20.074;2022-10-16T03:45:38;13.90;;;10.80;;
58647;SDS011;45992;45.920;20.074;2022-10-16T03:48:04;14.00;;;11.25;;
58647;SDS011;45992;45.920;20.074;2022-10-16T03:50:31;17.90;;;13.17;;
58647;SDS011;45992;45.920;20.074;2022-10-16T03:52:57;17.90;;;11.52;;
58647;SDS011;45992;45.920;20.074;2022-10-16T03:55:23;19.30;;;13.13;;
58647;SDS011;45992;45.920;20.074;2022-10-16T03:57:49;21.43;;;16.57;;
58647;SDS011;45992;45.920;20.074;2022-10-16T04:00:15;29.03;;;20.43;;
58647;SDS011;45992;45.920;20.074;2022-10-16T04:02:41;31.67;;;23.80;;
58647;SDS011;45992;45.920;20.074;2022-10-16T04:05:07;27.50;;;21.03;;
58647;SDS011;45992;45.920;20.074;2022-10-16T04:07:33;23.92;;;19.55;;
58647;SDS011;45992;45.920;20.074;2022-10-16T04:09:59;22.47;;;16.93;;
58647;SDS011;45992;45.920;20.074;2022-10-16T04:12:26;20.00;;;16.13;;
58647;SDS011;45992;45.920;20.074;2022-10-16T04:14:52;18.85;;;13.73;;
58647;SDS011;45992;45.920;20.074;2022-10-16T04:17:18;20.27;;;14.63;;
58647;SDS011;45992;45.920;20.074;2022-10-16T04:19:44;19.52;;;15.75;;
58647;SDS011;45992;45.920;20.074;2022-10-16T04:22:10;20.37;;;16.40;;
58647;SDS011;45992;45.920;20.074;2022-10-16T04:24:36;21.70;;;15.63;;
58647;SDS011;45992;45.920;20.074;2022-10-16T04:27:02;21.50;;;16.17;;
58647;SDS011;45992;45.920;20.074;2022-10-16T04:29:28;20.07;;;14.73;;
58647;SDS011;45992;45.920;20.074;2022-10-16T04:31:54;20.03;;;14.57;;
58647;SDS011;45992;45.920;20.074;2022-10-16T04:34:20;22.17;;;14.30;;
58647;SDS011;45992;45.920;20.074;2022-10-16T04:36:47;25.60;;;15.67;;
58647;SDS011;45992;45.920;20.074;2022-10-16T04:39:14;19.67;;;14.65;;
58647;SDS011;45992;45.920;20.074;2022-10-16T04:41:40;18.40;;;13.80;;
58647;SDS011;45992;45.920;20.074;2022-10-16T04:44:06;19.57;;;12.90;;
58647;SDS011;45992;45.920;20.074;2022-10-16T04:46:32;16.20;;;12.80;;
58647;SDS011;45992;45.920;20.074;2022-10-16T04:48:58;15.60;;;11.97;;
58647;SDS011;45992;45.920;20.074;2022-10-16T04:51:24;16.03;;;13.20;;
58647;SDS011;45992;45.920;20.074;2022-10-16T04:53:51;16.90;;;12.45;;
58647;SDS011;45992;45.920;20.074;2022-10-16T04:56:17;16.20;;;12.63;;
58647;SDS011;45992;45.920;20.074;2022-10-16T04:58:43;17.90;;;12.67;;
58647;SDS011;45992;45.920;20.074;2022-10-16T05:01:09;17.03;;;12.80;;
58647;SDS011;45992;45.920;20.074;2022-10-16T05:03:35;16.63;;;12.13;;
58647;SDS011;45992;45.920;20.074;2022-10-16T05:06:01;19.07;;;13.37;;
58647;SDS011;45992;45.920;20.074;2022-10-16T05:08:29;18.95;;;13.05;;
58647;SDS011;45992;45.920;20.074;2022-10-16T05:10:55;18.03;;;13.03;;
58647;SDS011;45992;45.920;20.074;2022-10-16T05:13:21;17.37;;;12.27;;
58647;SDS011;45992;45.920;20.074;2022-10-16T05:15:48;16.25;;;12.00;;
58647;SDS011;45992;45.920;20.074;2022-10-16T05:18:14;16.98;;;11.68;;
58647;SDS011;45992;45.920;20.074;2022-10-16T05:20:41;14.63;;;11.82;;
58647;SDS011;45992;45.920;20.074;2022-10-16T05:23:07;18.13;;;12.20;;
58647;SDS011;45992;45.920;20.074;2022-10-16T05:25:35;16.10;;;11.18;;
58647;SDS011;45992;45.920;20.074;2022-10-16T05:28:01;16.10;;;12.32;;
58647;SDS011;45992;45.920;20.074;2022-10-16T05:30:27;16.90;;;12.02;;
58647;SDS011;45992;45.920;20.074;2022-10-16T05:32:53;16.53;;;11.83;;
58647;SDS011;45992;45.920;20.074;2022-10-16T05:35:19;14.27;;;11.57;;
58647;SDS011;45992;45.920;20.074;2022-10-16T05:37:46;16.25;;;11.68;;
58647;SDS011;45992;45.920;20.074;2022-10-16T05:40:12;16.15;;;11.63;;
58647;SDS011;45992;45.920;20.074;2022-10-16T05:42:38;14.93;;;10.77;;
58647;SDS011;45992;45.920;20.074;2022-10-16T05:45:05;16.13;;;10.63;;
58647;SDS011;45992;45.920;20.074;2022-10-16T05:47:31;17.50;;;11.70;;
58647;SDS011;45992;45.920;20.074;2022-10-16T05:49:57;16.63;;;11.47;;
58647;SDS011;45992;45.920;20.074;2022-10-16T05:52:23;23.08;;;16.33;;
58647;SDS011;45992;45.920;20.074;2022-10-16T05:54:49;19.47;;;14.30;;
58647;SDS011;45992;45.920;20.074;2022-10-16T05:57:15;16.75;;;11.82;;
58647;SDS011;45992;45.920;20.074;2022-10-16T05:59:41;18.42;;;13.15;;
58647;SDS011;45992;45.920;20.074;2022-10-16T06:04:33;14.52;;;10.50;;
58647;SDS011;45992;45.920;20.074;2022-10-16T06:06:59;11.35;;;8.88;;
58647;SDS011;45992;45.920;20.074;2022-10-16T06:09:26;13.27;;;9.80;;
58647;SDS011;45992;45.920;20.074;2022-10-16T06:11:52;14.73;;;9.27;;
58647;SDS011;45992;45.920;20.074;2022-10-16T06:14:18;16.42;;;9.82;;
58647;SDS011;45992;45.920;20.074;2022-10-16T06:16:44;15.43;;;11.70;;
58647;SDS011;45992;45.920;20.074;2022-10-16T06:19:10;19.63;;;11.75;;
58647;SDS011;45992;45.920;20.074;2022-10-16T06:21:36;15.48;;;11.82;;
58647;SDS011;45992;45.920;20.074;2022-10-16T06:24:02;12.15;;;8.98;;
58647;SDS011;45992;45.920;20.074;2022-10-16T06:26:29;14.02;;;9.60;;
58647;SDS011;45992;45.920;20.074;2022-10-16T06:28:56;15.30;;;10.02;;
58647;SDS011;45992;45.920;20.074;2022-10-16T06:31:22;12.80;;;8.65;;
58647;SDS011;45992;45.920;20.074;2022-10-16T06:33:52;11.73;;;7.95;;
58647;SDS011;45992;45.920;20.074;2022-10-16T06:36:19;12.68;;;8.32;;
58647;SDS011;45992;45.920;20.074;2022-10-16T06:38:45;12.23;;;8.00;;
58647;SDS011;45992;45.920;20.074;2022-10-16T06:43:37;13.45;;;8.25;;
58647;SDS011;45992;45.920;20.074;2022-10-16T06:46:04;10.38;;;8.43;;
58647;SDS011;45992;45.920;20.074;2022-10-16T06:48:30;9.57;;;7.80;;
58647;SDS011;45992;45.920;20.074;2022-10-16T06:51:01;10.52;;;7.00;;
58647;SDS011;45992;45.920;20.074;2022-10-16T06:53:28;9.70;;;7.30;;
58647;SDS011;45992;45.920;20.074;2022-10-16T06:55:55;11.82;;;8.20;;
58647;SDS011;45992;45.920;20.074;2022-10-16T07:00:47;10.35;;;7.38;;
58647;SDS011;45992;45.920;20.074;2022-10-16T07:05:39;10.35;;;7.38;;
58647;SDS011;45992;45.920;20.074;2022-10-16T07:08:05;14.38;;;7.55;;
58647;SDS011;45992;45.920;20.074;2022-10-16T07:10:32;10.18;;;7.47;;
58647;SDS011;45992;45.920;20.074;2022-10-16T07:12:58;12.35;;;8.43;;
58647;SDS011;45992;45.920;20.074;2022-10-16T07:15:24;9.38;;;6.82;;
58647;SDS011;45992;45.920;20.074;2022-10-16T07:17:51;10.45;;;8.02;;
58647;SDS011;45992;45.920;20.074;2022-10-16T07:22:43;11.05;;;6.60;;
58647;SDS011;45992;45.920;20.074;2022-10-16T07:25:09;9.80;;;6.85;;
58647;SDS011;45992;45.920;20.074;2022-10-16T07:27:36;11.25;;;7.88;;
58647;SDS011;45992;45.920;20.074;2022-10-16T07:30:02;10.93;;;7.28;;
58647;SDS011;45992;45.920;20.074;2022-10-16T07:32:29;8.55;;;6.57;;
58647;SDS011;45992;45.920;20.074;2022-10-16T07:34:57;15.80;;;7.20;;
58647;SDS011;45992;45.920;20.074;2022-10-16T07:37:23;11.02;;;6.78;;
58647;SDS011;45992;45.920;20.074;2022-10-16T07:39:49;9.18;;;6.38;;
58647;SDS011;45992;45.920;20.074;2022-10-16T07:44:41;11.90;;;7.40;;
58647;SDS011;45992;45.920;20.074;2022-10-16T07:47:07;9.98;;;6.18;;
58647;SDS011;45992;45.920;20.074;2022-10-16T07:49:33;10.25;;;6.78;;
58647;SDS011;45992;45.920;20.074;2022-10-16T07:51:59;11.32;;;6.70;;
58647;SDS011;45992;45.920;20.074;2022-10-16T07:56:51;10.15;;;6.82;;
58647;SDS011;45992;45.920;20.074;2022-10-16T08:01:43;10.40;;;6.30;;
58647;SDS011;45992;45.920;20.074;2022-10-16T08:04:09;9.15;;;6.68;;
58647;SDS011;45992;45.920;20.074;2022-10-16T08:09:01;9.15;;;6.28;;
58647;SDS011;45992;45.920;20.074;2022-10-16T08:13:56;9.38;;;6.18;;
58647;SDS011;45992;45.920;20.074;2022-10-16T08:16:22;10.05;;;6.35;;
58647;SDS011;45992;45.920;20.074;2022-10-16T08:18:48;10.23;;;6.32;;
58647;SDS011;45992;45.920;20.074;2022-10-16T08:21:17;9.23;;;6.35;;
58647;SDS011;45992;45.920;20.074;2022-10-16T08:23:43;9.30;;;5.97;;
58647;SDS011;45992;45.920;20.074;2022-10-16T08:28:35;12.63;;;7.95;;
58647;SDS011;45992;45.920;20.074;2022-10-16T08:33:27;8.02;;;5.93;;
58647;SDS011;45992;45.920;20.074;2022-10-16T08:35:53;8.85;;;6.10;;
58647;SDS011;45992;45.920;20.074;2022-10-16T08:38:19;8.27;;;5.47;;
58647;SDS011;45992;45.920;20.074;2022-10-16T08:40:45;9.23;;;6.20;;
58647;SDS011;45992;45.920;20.074;2022-10-16T08:48:30;10.15;;;6.40;;
58647;SDS011;45992;45.920;20.074;2022-10-16T08:50:58;9.40;;;6.03;;
58647;SDS011;45992;45.920;20.074;2022-10-16T08:53:26;9.40;;;5.13;;
58647;SDS011;45992;45.920;20.074;2022-10-16T08:55:54;7.53;;;4.93;;
58647;SDS011;45992;45.920;20.074;2022-10-16T08:58:26;11.15;;;5.45;;
58647;SDS011;45992;45.920;20.074;2022-10-16T09:01:02;7.95;;;5.10;;
58647;SDS011;45992;45.920;20.074;2022-10-16T09:16:57;10.75;;;5.28;;
58647;SDS011;45992;45.920;20.074;2022-10-16T09:19:27;9.05;;;5.85;;
58647;SDS011;45992;45.920;20.074;2022-10-16T09:21:56;11.38;;;5.63;;
58647;SDS011;45992;45.920;20.074;2022-10-16T09:24:24;11.52;;;5.88;;
58647;SDS011;45992;45.920;20.074;2022-10-16T09:26:51;9.07;;;5.22;;
58647;SDS011;45992;45.920;20.074;2022-10-16T09:29:17;10.30;;;4.47;;
58647;SDS011;45992;45.920;20.074;2022-10-16T09:31:45;9.32;;;5.13;;
58647;SDS011;45992;45.920;20.074;2022-10-16T09:36:41;10.07;;;5.30;;
58647;SDS011;45992;45.920;20.074;2022-10-16T09:39:09;7.55;;;3.92;;
58647;SDS011;45992;45.920;20.074;2022-10-16T09:41:37;7.78;;;4.55;;
58647;SDS011;45992;45.920;20.074;2022-10-16T09:44:06;10.52;;;4.47;;
58647;SDS011;45992;45.920;20.074;2022-10-16T09:46:39;8.70;;;4.70;;
58647;SDS011;45992;45.920;20.074;2022-10-16T09:49:25;7.38;;;4.32;;
58647;SDS011;45992;45.920;20.074;2022-10-16T09:52:02;7.32;;;4.38;;
58647;SDS011;45992;45.920;20.074;2022-10-16T09:54:28;7.35;;;4.70;;
58647;SDS011;45992;45.920;20.074;2022-10-16T09:57:03;9.73;;;5.00;;
58647;SDS011;45992;45.920;20.074;2022-10-16T09:59:31;9.40;;;4.50;;
58647;SDS011;45992;45.920;20.074;2022-10-16T10:02:00;7.45;;;4.20;;
58647;SDS011;45992;45.920;20.074;2022-10-16T10:04:36;13.43;;;4.93;;
58647;SDS011;45992;45.920;20.074;2022-10-16T10:07:03;7.60;;;4.20;;
58647;SDS011;45992;45.920;20.074;2022-10-16T10:09:31;9.82;;;4.57;;
58647;SDS011;45992;45.920;20.074;2022-10-16T10:11:58;8.13;;;4.40;;
58647;SDS011;45992;45.920;20.074;2022-10-16T10:14:43;8.07;;;4.60;;
58647;SDS011;45992;45.920;20.074;2022-10-16T10:17:11;15.63;;;5.85;;
58647;SDS011;45992;45.920;20.074;2022-10-16T10:19:43;11.88;;;4.13;;
58647;SDS011;45992;45.920;20.074;2022-10-16T10:22:16;12.65;;;6.05;;
58647;SDS011;45992;45.920;20.074;2022-10-16T10:24:44;8.80;;;3.90;;
58647;SDS011;45992;45.920;20.074;2022-10-16T10:27:11;9.15;;;3.95;;
58647;SDS011;45992;45.920;20.074;2022-10-16T10:30:01;10.95;;;5.50;;
58647;SDS011;45992;45.920;20.074;2022-10-16T10:32:35;7.38;;;3.70;;
58647;SDS011;45992;45.920;20.074;2022-10-16T10:40:05;7.63;;;3.92;;
58647;SDS011;45992;45.920;20.074;2022-10-16T10:47:41;13.05;;;6.28;;
58647;SDS011;45992;45.920;20.074;2022-10-16T10:50:22;18.80;;;6.95;;
58647;SDS011;45992;45.920;20.074;2022-10-16T10:52:56;11.25;;;5.72;;
58647;SDS011;45992;45.920;20.074;2022-10-16T10:55:27;11.82;;;4.85;;
58647;SDS011;45992;45.920;20.074;2022-10-16T11:05:59;11.32;;;4.32;;
58647;SDS011;45992;45.920;20.074;2022-10-16T11:13:33;13.40;;;4.30;;
58647;SDS011;45992;45.920;20.074;2022-10-16T11:16:35;7.63;;;3.92;;
58647;SDS011;45992;45.920;20.074;2022-10-16T11:19:03;8.32;;;3.83;;
58647;SDS011;45992;45.920;20.074;2022-10-16T11:21:36;11.18;;;4.35;;
58647;SDS011;45992;45.920;20.074;2022-10-16T11:24:08;8.60;;;4.20;;
58647;SDS011;45992;45.920;20.074;2022-10-16T11:26:41;7.07;;;3.85;;
58647;SDS011;45992;45.920;20.074;2022-10-16T11:29:10;7.78;;;3.80;;
58647;SDS011;45992;45.920;20.074;2022-10-16T11:34:28;9.25;;;4.18;;
58647;SDS011;45992;45.920;20.074;2022-10-16T11:37:05;7.45;;;3.95;;
58647;SDS011;45992;45.920;20.074;2022-10-16T11:39:34;9.50;;;4.43;;
58647;SDS011;45992;45.920;20.074;2022-10-16T11:44:51;8.35;;;4.38;;
58647;SDS011;45992;45.920;20.074;2022-10-16T11:49:49;7.15;;;4.30;;
58647;SDS011;45992;45.920;20.074;2022-10-16T11:52:17;9.40;;;4.00;;
58647;SDS011;45992;45.920;20.074;2022-10-16T11:59:42;8.43;;;4.03;;
58647;SDS011;45992;45.920;20.074;2022-10-16T12:05:12;8.27;;;3.90;;
58647;SDS011;45992;45.920;20.074;2022-10-16T12:07:43;11.05;;;4.88;;
58647;SDS011;45992;45.920;20.074;2022-10-16T12:10:26;9.00;;;4.32;;
58647;SDS011;45992;45.920;20.074;2022-10-16T12:12:53;7.68;;;3.55;;
58647;SDS011;45992;45.920;20.074;2022-10-16T12:17:45;7.97;;;3.58;;
58647;SDS011;45992;45.920;20.074;2022-10-16T12:22:41;7.25;;;3.45;;
58647;SDS011;45992;45.920;20.074;2022-10-16T12:27:57;8.15;;;3.95;;
58647;SDS011;45992;45.920;20.074;2022-10-16T12:30:24;6.90;;;3.80;;
58647;SDS011;45992;45.920;20.074;2022-10-16T12:32:58;8.02;;;3.67;;
58647;SDS011;45992;45.920;20.074;2022-10-16T12:35:27;7.80;;;4.10;;
58647;SDS011;45992;45.920;20.074;2022-10-16T12:37:54;26.35;;;13.38;;
58647;SDS011;45992;45.920;20.074;2022-10-16T12:40:29;6.88;;;3.67;;
58647;SDS011;45992;45.920;20.074;2022-10-16T12:42:56;10.90;;;4.00;;
58647;SDS011;45992;45.920;20.074;2022-10-16T12:47:50;8.27;;;3.88;;
58647;SDS011;45992;45.920;20.074;2022-10-16T12:50:24;7.28;;;3.60;;
58647;SDS011;45992;45.920;20.074;2022-10-16T12:52:50;7.43;;;4.20;;
58647;SDS011;45992;45.920;20.074;2022-10-16T12:55:17;7.68;;;3.85;;
58647;SDS011;45992;45.920;20.074;2022-10-16T13:18:13;9.02;;;4.03;;
58647;SDS011;45992;45.920;20.074;2022-10-16T13:28:10;8.02;;;4.15;;
58647;SDS011;45992;45.920;20.074;2022-10-16T13:30:38;9.07;;;4.15;;
58647;SDS011;45992;45.920;20.074;2022-10-16T13:36:01;8.63;;;4.10;;
58647;SDS011;45992;45.920;20.074;2022-10-16T13:38:28;7.57;;;3.63;;
58647;SDS011;45992;45.920;20.074;2022-10-16T13:40:57;6.45;;;3.53;;
58647;SDS011;45992;45.920;20.074;2022-10-16T13:46:10;7.93;;;4.35;;
58647;SDS011;45992;45.920;20.074;2022-10-16T13:48:37;8.35;;;4.15;;
58647;SDS011;45992;45.920;20.074;2022-10-16T13:51:11;8.07;;;3.92;;
58647;SDS011;45992;45.920;20.074;2022-10-16T13:53:38;10.65;;;4.30;;
58647;SDS011;45992;45.920;20.074;2022-10-16T13:56:05;9.57;;;4.60;;
58647;SDS011;45992;45.920;20.074;2022-10-16T13:58:31;9.48;;;4.68;;
58647;SDS011;45992;45.920;20.074;2022-10-16T14:01:01;8.52;;;4.63;;
58647;SDS011;45992;45.920;20.074;2022-10-16T14:03:28;10.05;;;4.25;;
58647;SDS011;45992;45.920;20.074;2022-10-16T14:05:55;7.35;;;4.13;;
58647;SDS011;45992;45.920;20.074;2022-10-16T14:08:22;10.65;;;4.80;;
58647;SDS011;45992;45.920;20.074;2022-10-16T14:10:50;9.05;;;5.00;;
58647;SDS011;45992;45.920;20.074;2022-10-16T14:13:18;7.18;;;4.05;;
58647;SDS011;45992;45.920;20.074;2022-10-16T14:15:46;10.45;;;4.63;;
58647;SDS011;45992;45.920;20.074;2022-10-16T14:18:15;9.30;;;4.60;;
58647;SDS011;45992;45.920;20.074;2022-10-16T14:20:43;12.80;;;4.30;;
58647;SDS011;45992;45.920;20.074;2022-10-16T14:25:51;8.77;;;4.45;;
58647;SDS011;45992;45.920;20.074;2022-10-16T14:30:51;9.07;;;4.03;;
58647;SDS011;45992;45.920;20.074;2022-10-16T14:33:20;11.45;;;4.40;;
58647;SDS011;45992;45.920;20.074;2022-10-16T14:35:46;7.10;;;3.97;;
58647;SDS011;45992;45.920;20.074;2022-10-16T14:38:24;9.00;;;4.57;;
58647;SDS011;45992;45.920;20.074;2022-10-16T14:40:50;7.80;;;4.30;;
58647;SDS011;45992;45.920;20.074;2022-10-16T14:43:50;14.05;;;4.47;;
58647;SDS011;45992;45.920;20.074;2022-10-16T14:46:17;10.50;;;4.20;;
58647;SDS011;45992;45.920;20.074;2022-10-16T14:48:45;14.02;;;4.60;;
58647;SDS011;45992;45.920;20.074;2022-10-16T14:51:13;9.35;;;5.88;;
58647;SDS011;45992;45.920;20.074;2022-10-16T14:53:39;9.35;;;4.35;;
58647;SDS011;45992;45.920;20.074;2022-10-16T14:56:08;12.00;;;4.57;;
58647;SDS011;45992;45.920;20.074;2022-10-16T14:58:35;8.27;;;4.00;;
58647;SDS011;45992;45.920;20.074;2022-10-16T15:01:01;9.80;;;4.43;;
58647;SDS011;45992;45.920;20.074;2022-10-16T15:03:27;9.02;;;4.25;;
58647;SDS011;45992;45.920;20.074;2022-10-16T15:05:53;9.15;;;4.30;;
58647;SDS011;45992;45.920;20.074;2022-10-16T15:08:19;10.75;;;4.30;;
58647;SDS011;45992;45.920;20.074;2022-10-16T15:10:45;9.55;;;4.18;;
58647;SDS011;45992;45.920;20.074;2022-10-16T15:13:12;8.82;;;4.20;;
58647;SDS011;45992;45.920;20.074;2022-10-16T15:18:04;11.05;;;4.63;;
58647;SDS011;45992;45.920;20.074;2022-10-16T15:20:34;8.27;;;4.63;;
58647;SDS011;45992;45.920;20.074;2022-10-16T15:23:02;10.38;;;5.60;;
58647;SDS011;45992;45.920;20.074;2022-10-16T15:25:30;11.95;;;5.95;;
58647;SDS011;45992;45.920;20.074;2022-10-16T15:27:57;13.55;;;7.38;;
58647;SDS011;45992;45.920;20.074;2022-10-16T15:30:23;18.40;;;8.93;;
58647;SDS011;45992;45.920;20.074;2022-10-16T15:32:49;25.25;;;14.27;;
58647;SDS011;45992;45.920;20.074;2022-10-16T15:35:15;37.53;;;20.85;;
58647;SDS011;45992;45.920;20.074;2022-10-16T15:37:41;78.47;;;53.72;;
58647;SDS011;45992;45.920;20.074;2022-10-16T15:40:08;31.23;;;19.83;;
58647;SDS011;45992;45.920;20.074;2022-10-16T15:42:34;30.25;;;17.73;;
58647;SDS011;45992;45.920;20.074;2022-10-16T15:45:00;25.98;;;14.05;;
58647;SDS011;45992;45.920;20.074;2022-10-16T15:47:26;20.42;;;12.40;;
58647;SDS011;45992;45.920;20.074;2022-10-16T15:49:53;22.98;;;13.13;;
58647;SDS011;45992;45.920;20.074;2022-10-16T15:52:19;19.50;;;11.00;;
58647;SDS011;45992;45.920;20.074;2022-10-16T15:54:45;31.88;;;19.05;;
58647;SDS011;45992;45.920;20.074;2022-10-16T15:57:11;30.52;;;17.85;;
58647;SDS011;45992;45.920;20.074;2022-10-16T15:59:37;22.17;;;12.52;;
58647;SDS011;45992;45.920;20.074;2022-10-16T16:02:03;25.77;;;12.20;;
58647;SDS011;45992;45.920;20.074;2022-10-16T16:04:29;26.02;;;16.77;;
58647;SDS011;45992;45.920;20.074;2022-10-16T16:06:56;31.95;;;16.58;;
58647;SDS011;45992;45.920;20.074;2022-10-16T16:09:22;29.25;;;17.20;;
58647;SDS011;45992;45.920;20.074;2022-10-16T16:11:48;25.05;;;14.63;;
58647;SDS011;45992;45.920;20.074;2022-10-16T16:14:16;32.85;;;18.27;;
58647;SDS011;45992;45.920;20.074;2022-10-16T16:16:42;26.30;;;15.65;;
58647;SDS011;45992;45.920;20.074;2022-10-16T16:19:08;62.63;;;53.30;;
58647;SDS011;45992;45.920;20.074;2022-10-16T16:21:34;77.70;;;61.22;;
58647;SDS011;45992;45.920;20.074;2022-10-16T16:24:00;72.40;;;55.78;;
58647;SDS011;45992;45.920;20.074;2022-10-16T16:26:32;39.92;;;26.08;;
58647;SDS011;45992;45.920;20.074;2022-10-16T16:29:01;30.48;;;21.20;;
58647;SDS011;45992;45.920;20.074;2022-10-16T16:33:54;51.38;;;30.55;;
58647;SDS011;45992;45.920;20.074;2022-10-16T16:36:21;48.17;;;32.03;;
58647;SDS011;45992;45.920;20.074;2022-10-16T16:38:48;48.45;;;29.92;;
58647;SDS011;45992;45.920;20.074;2022-10-16T16:41:15;48.92;;;36.47;;
58647;SDS011;45992;45.920;20.074;2022-10-16T16:43:41;45.85;;;34.83;;
58647;SDS011;45992;45.920;20.074;2022-10-16T16:46:08;91.85;;;53.53;;
58647;SDS011;45992;45.920;20.074;2022-10-16T16:48:34;62.80;;;39.45;;
58647;SDS011;45992;45.920;20.074;2022-10-16T16:51:07;59.55;;;33.10;;
58647;SDS011;45992;45.920;20.074;2022-10-16T16:53:34;50.25;;;27.70;;
58647;SDS011;45992;45.920;20.074;2022-10-16T16:56:01;33.50;;;24.77;;
58647;SDS011;45992;45.920;20.074;2022-10-16T16:58:27;34.92;;;22.65;;
58647;SDS011;45992;45.920;20.074;2022-10-16T17:00:53;52.03;;;33.95;;
58647;SDS011;45992;45.920;20.074;2022-10-16T17:03:19;98.78;;;66.13;;
58647;SDS011;45992;45.920;20.074;2022-10-16T17:05:54;47.88;;;28.55;;
58647;SDS011;45992;45.920;20.074;2022-10-16T17:08:20;54.72;;;34.50;;
58647;SDS011;45992;45.920;20.074;2022-10-16T17:10:46;61.65;;;43.35;;
58647;SDS011;45992;45.920;20.074;2022-10-16T17:13:17;43.78;;;27.40;;
58647;SDS011;45992;45.920;20.074;2022-10-16T17:15:46;45.58;;;30.17;;
58647;SDS011;45992;45.920;20.074;2022-10-16T17:18:13;84.32;;;59.35;;
58647;SDS011;45992;45.920;20.074;2022-10-16T17:20:39;59.60;;;39.03;;